AirNav  
 
 271 users online  

CL35 Warner Springs Gliderport
Warner Springs, California, USA

GOING TO WARNER SPRINGS?


FAA INFORMATION EFFECTIVE 12 OCTOBER 2017

Location

FAA Identifier: CL35
Lat/Long: 33-17-04.2100N / 116-40-10.7650W
33-17.070167N / 116-40.179417W
33.2845028 / -116.6696569
(estimated)
Elevation: 2880 ft. / 878 m (estimated)
Variation: 13E (1985)
From city: 2 miles E of WARNER SPRINGS, CA
Time zone: UTC -7 (UTC -8 during Standard Time)
Zip code: 92086

Gliderport Operations

Gliderport use: Private use. Permission required prior to landing
Activation date: 10/1984
Control tower: no
ARTCC: LOS ANGELES CENTER
FSS: SAN DIEGO FLIGHT SERVICE STATION
Attendance: 0900-1700
Wind indicator: yes
Segmented circle: yes
Landing fee: yes

Gliderport Communications

UNICOM: 122.8
WX AWOS-1 at L08 (18 nm E): 126.575 (760-767-3308)
WX ASOS at RNM (19 nm SW): 132.025 (760-789-0736)

Nearby radio navigation aids

VOR radial/distance  VOR name  Freq  Var
JLIr319/9.6JULIAN VORTAC114.0015E
TRMr218/32.8THERMAL VORTAC116.2013E
PSPr186/37.1PALM SPRINGS VORTAC115.5013E
OCNr071/37.6OCEANSIDE VORTAC115.3015E
HDFr125/(39.2)HOMELAND VOR113.4014E

Gliderport Services

Runway Information

Runway 8/26

Dimensions: 3500 x 70 ft. / 1067 x 21 m
Surface: asphalt
RUNWAY 8  RUNWAY 26
Latitude: 33-17.060333N33-17.080000N
Longitude: 116-40.522667W116-39.836167W
Elevation: 2873.0 ft.2914.0 ft.
Traffic pattern: leftleft
Obstructions: none200 ft. hill, 5200 ft. from runway

Gliderport Ownership and Management from official FAA records

Ownership: Privately-owned
Owner: WARNER SPRINGS RANCH RESORT, LLC
31930 HWY 79
WARNER SPRINGS, CA 92086
Phone 760-782-4200
SKY SAILING 31930 HWY 79.
Manager: BRET WILLAT
SKY SAILING 31930 HWY 79
WARNER SPRINGS, CA 92086
Phone 760-782-0404
LEASEE.

Gliderport Operational Statistics

Aircraft based on the field: 80
Single engine airplanes: 10
Gliders airplanes: 70
    

Instrument Procedures

There are no published instrument procedures at CL35.

Some nearby airports with instrument procedures:

L08 - Borrego Valley Airport (18 nm E)
KRNM - Ramona Airport (19 nm SW)
F70 - French Valley Airport (29 nm NW)
L18 - Fallbrook Community Airpark (29 nm W)
KSEE - Gillespie Field Airport (31 nm SW)
 
Loc | Ops | Rwys | IFR | FBO | Links
Com | Nav | Svcs | Stats | Notes


 
Area around CL35 (Warner Springs Gliderport)
 
Road maps at: MapQuest Bing Google
 
Aerial photo
WARNING: Photo may not be current or correct
Aerial photo of CL35 (Warner Springs Gliderport)
Photo by Steve Lupinacci
Photo taken 27-May-2008

Do you have a better or more recent aerial photo of Warner Springs Gliderport that you would like to share? If so, please send us your photo.

 
Sectional chart

 
Airport distance calculator
Flying to Warner Springs Gliderport? Find the distance to fly.

From to CL35

Sunrise and sunset
Times for 24-Oct-2017
 Local
(UTC-7)
 Zulu
(UTC)
Morning civil twilight06:3413:34
Sunrise06:5913:59
Sunset18:0201:02
Evening civil twilight18:2801:28

Current date and time
Zulu (UTC)  24-Oct-2017 07:35:53
Local (UTC-7)  24-Oct-2017 00:35:53
 
METAR
KRNM 
20nm SW 
240653Z AUTO 00000KT 10SM CLR 17/M01 A3008 RMK AO2 SLP168 T01671011 $
KF70 
29nm NW 
240715Z AUTO 02003KT 10SM CLR 18/03 A3011 RMK AO1
KL18 
29nm W 
240715Z AUTO 05003KT 10SM CLR 27/01 A3004 RMK AO2
KSEE 
32nm SW 
240715Z AUTO 00000KT 10SM CLR 18/01 A3002 RMK AO2
KCRQ 
32nm W 
240653Z AUTO 00000KT 10SM CLR 23/02 A3001 RMK AO2 SLP157 T02330022
KTRM 
33nm NE 
240652Z AUTO 32005KT 10SM CLR 26/04 A3002 RMK AO2 SLP167 T02610044
KPSP 
33nm N 
240653Z 29007KT 10SM CLR 34/00 A3010 RMK AO2 SLP187 T03390000
KNFG 
33nm W 
240657Z AUTO 00000KT 10SM CLR 14/05 A3001 RMK AO2 SLP161 T01390050
KNKX 
34nm SW 
240655Z 08007KT 10SM CLR 24/M01 A3002 RMK AO2 SLP156 T02441006 $
KOKB 
34nm W 
240652Z AUTO 00000KT 10SM CLR 14/08 A3000 RMK AO2 SLP159 T01440078
TAF
KCRQ 
32nm W 
240520Z 2406/2506 VRB04KT P6SM SKC FM241000 06008KT P6SM SKC FM241500 06012G20KT P6SM SKC FM241900 09011KT P6SM SKC
KTRM 
33nm NE 
240520Z 2406/2506 33006KT P6SM SKC FM241900 35012KT P6SM SKC FM242300 32008KT P6SM SKC
KPSP 
33nm N 
240520Z 2406/2506 31007KT P6SM SKC WS015/05020KT FM241700 01012KT P6SM SKC FM242100 03009KT P6SM SKC
KNFG 
33nm W 
2321/2421 21010KT 9999 SKC QNH2996INS BECMG 2401/2403 VRB05KT 9999 SKC QNH2995INS FM240730 05005KT 9999 SKC QNH2998INS BECMG 2415/2417 22009KT 9999 SKC QNH2996INS T12/2412Z T38/2421Z
KNKX 
34nm SW 
2321/2421 33009KT 9999 SKC QNH2997INS FM240630 05005KT 9999 SKC QNH3000INS BECMG 2418/2420 33009KT 9999 SKC QNH2997INS T20/2412Z T40/2421Z
NOTAMs
Click for the latest NOTAMs
NOTAMs are issued by the DoD/FAA and will open in a separate window not controlled by AirNav.

 

 
 

Would you like to see your business listed on this page?

 If your business provides an interesting product or service to pilots, flight crews, aircraft, or users of the Warner Springs Gliderport, you should consider listing it here.  To start the listing process, click on the button below
 
Add a business
 

Other Pages about Warner Springs Gliderport

www.agcsc.org/warner_springs_info.html
 
Update a link
 
Copyright © AirNav, LLC. All rights reserved. Privacy Policy  Contact